Time;durP1;ratioP1;P1;durP2;ratioP2;P2;SDS_P1;SDS_P2;PMS_P1;PMS_P2;Temp;Humidity;BMP_temperature;BMP_pressure;BME280_temperature;BME280_humidity;BME280_pressure;Samples;Min_cycle;Max_cycle;Signal;HPM_P1;HPM_P2
2022/08/29 00:02:21;;;;;;;1.88;1.20;;;16.50;66.20;;;;;;6243138;23;20533;-68
2022/08/29 00:04:46;;;;;;;3.20;1.40;;;16.50;66.30;;;;;;6242755;23;20008;-68
2022/08/29 00:07:12;;;;;;;2.83;1.25;;;16.50;66.40;;;;;;6241081;23;20004;-66
2022/08/29 00:09:37;;;;;;;1.70;1.20;;;16.50;66.40;;;;;;6241008;23;20039;-69
2022/08/29 00:12:04;;;;;;;2.28;1.10;;;16.40;66.50;;;;;;6242157;23;19997;-68
2022/08/29 00:14:30;;;;;;;2.45;1.10;;;16.40;66.50;;;;;;6242032;23;20003;-69
2022/08/29 00:16:55;;;;;;;2.78;1.10;;;16.40;66.50;;;;;;6242699;23;20661;-69
2022/08/29 00:19:21;;;;;;;1.92;1.30;;;16.40;66.60;;;;;;6242941;23;20008;-68
2022/08/29 00:21:46;;;;;;;1.80;1.10;;;16.30;66.60;;;;;;6243714;23;20058;-68
2022/08/29 00:24:12;;;;;;;1.98;1.10;;;16.30;66.70;;;;;;6241160;23;20099;-68
2022/08/29 00:26:37;;;;;;;1.50;1.05;;;16.30;66.70;;;;;;6242404;23;20285;-68
2022/08/29 00:29:04;;;;;;;1.63;1.10;;;16.20;66.80;;;;;;6243600;23;20019;-66
2022/08/29 00:31:29;;;;;;;2.17;1.10;;;16.20;66.90;;;;;;6244038;23;20003;-68
2022/08/29 00:33:56;;;;;;;1.92;1.20;;;16.10;66.90;;;;;;6244070;23;19997;-68
2022/08/29 00:36:22;;;;;;;2.75;1.10;;;16.10;67.00;;;;;;6243028;23;20007;-68
2022/08/29 00:38:48;;;;;;;3.03;1.13;;;16.10;67.10;;;;;;6242223;23;20046;-69
2022/08/29 00:41:13;;;;;;;2.85;1.33;;;16.00;67.10;;;;;;6242649;23;20336;-69
2022/08/29 00:43:39;;;;;;;1.48;1.10;;;16.10;67.20;;;;;;6242129;23;20008;-68
2022/08/29 00:46:30;;;;;;;3.58;1.17;;;16.10;67.20;;;;;;6243192;23;20004;-69
2022/08/29 00:48:59;;;;;;;1.85;1.20;;;16.10;67.30;;;;;;6243234;23;20428;-68
2022/08/29 00:51:25;;;;;;;2.33;1.10;;;16.00;67.20;;;;;;6243756;23;20016;-68
2022/08/29 00:54:00;;;;;;;2.75;1.00;;;16.00;67.30;;;;;;6243109;23;20003;-69
2022/08/29 00:56:27;;;;;;;1.65;1.10;;;16.00;67.40;;;;;;6242901;23;20004;-68
2022/08/29 00:59:01;;;;;;;1.30;0.80;;;16.00;67.30;;;;;;6242901;23;20027;-67
2022/08/29 01:01:27;;;;;;;1.42;0.90;;;15.90;67.40;;;;;;6242779;23;20003;-67
2022/08/29 01:03:53;;;;;;;2.55;1.40;;;16.00;67.50;;;;;;6243848;23;20075;-67
2022/08/29 01:06:19;;;;;;;1.75;1.00;;;15.90;67.40;;;;;;6242902;23;20372;-67
2022/08/29 01:08:45;;;;;;;1.48;1.10;;;15.90;67.50;;;;;;6241895;23;20028;-67
2022/08/29 01:14:00;;;;;;;2.08;1.33;;;15.90;67.60;;;;;;6243199;23;20027;-67
2022/08/29 01:16:26;;;;;;;1.40;1.10;;;15.90;67.60;;;;;;6242080;23;20000;-67
2022/08/29 01:18:58;;;;;;;1.83;1.02;;;15.90;67.60;;;;;;6243455;23;20027;-67
2022/08/29 01:21:36;;;;;;;2.40;1.20;;;15.90;67.70;;;;;;6243886;23;20004;-68
2022/08/29 01:24:22;;;;;;;3.00;1.40;;;15.90;67.40;;;;;;6243536;23;20004;-68
2022/08/29 01:26:47;;;;;;;2.38;1.05;;;15.90;67.60;;;;;;6243193;23;20092;-68
2022/08/29 01:29:14;;;;;;;2.22;1.10;;;15.90;67.60;;;;;;6242916;23;20032;-68
2022/08/29 01:31:46;;;;;;;2.25;1.10;;;15.90;67.60;;;;;;6241992;23;20098;-68
2022/08/29 01:34:12;;;;;;;;;;;15.90;67.60;;;;;;6244530;23;20000;-67
2022/08/29 01:36:46;;;;;;;2.15;1.10;;;15.90;67.40;;;;;;6242888;22;19904;-68
2022/08/29 01:39:12;;;;;;;3.08;1.10;;;15.90;67.50;;;;;;6242071;23;20008;-68
2022/08/29 01:41:38;;;;;;;2.20;1.00;;;15.90;67.50;;;;;;6243447;23;20028;-67
2022/08/29 01:44:10;;;;;;;2.55;1.17;;;15.90;67.40;;;;;;6242361;23;20000;-67
2022/08/29 01:46:36;;;;;;;;;;;15.90;67.60;;;;;;6243371;23;20011;-68
2022/08/29 01:49:03;;;;;;;3.25;1.10;;;15.90;67.40;;;;;;6243004;22;19899;-69
2022/08/29 01:51:29;;;;;;;4.45;1.30;;;15.90;67.50;;;;;;6244276;23;20329;-68
2022/08/29 01:53:55;;;;;;;4.07;1.25;;;15.90;67.50;;;;;;6242663;23;20004;-69
2022/08/29 01:56:30;;;;;;;1.95;1.10;;;15.90;67.50;;;;;;6242388;23;20003;-68
2022/08/29 01:58:57;;;;;;;1.80;1.20;;;15.90;67.50;;;;;;6245117;23;20429;-67
2022/08/29 02:01:26;;;;;;;3.08;1.17;;;15.90;67.50;;;;;;6244342;23;19996;-67
2022/08/29 02:03:52;;;;;;;2.42;1.10;;;15.90;67.50;;;;;;6242408;23;20016;-67
2022/08/29 02:06:19;;;;;;;2.85;1.50;;;15.80;67.40;;;;;;6245267;23;20415;-68
2022/08/29 02:08:45;;;;;;;2.80;1.40;;;15.80;67.50;;;;;;6245025;23;19996;-67
2022/08/29 02:11:11;;;;;;;2.53;1.10;;;15.80;67.40;;;;;;6244196;23;20004;-67
2022/08/29 02:13:40;;;;;;;3.92;1.20;;;15.80;67.40;;;;;;6243949;23;20071;-67
2022/08/29 02:16:06;;;;;;;3.17;1.30;;;15.80;67.40;;;;;;6244578;23;19996;-68
2022/08/29 02:18:32;;;;;;;2.90;1.40;;;15.80;67.40;;;;;;6245327;23;20087;-67
2022/08/29 02:20:58;;;;;;;3.50;1.83;;;15.80;67.40;;;;;;6245657;23;20004;-68
2022/08/29 02:23:23;;;;;;;2.75;1.60;;;15.80;67.40;;;;;;6246649;22;20012;-68
2022/08/29 02:25:49;;;;;;;2.33;1.27;;;15.80;67.40;;;;;;6245791;23;20010;-68
2022/08/29 02:28:17;;;;;;;3.33;1.50;;;15.70;67.30;;;;;;6245374;23;20448;-68
2022/08/29 02:30:47;;;;;;;1.75;1.30;;;15.70;67.30;;;;;;6245514;23;20007;-68
2022/08/29 02:33:14;;;;;;;3.75;1.58;;;15.70;67.10;;;;;;6245312;23;20000;-67
2022/08/29 02:35:40;;;;;;;4.63;1.98;;;15.70;67.00;;;;;;6244947;23;20376;-68
2022/08/29 02:38:06;;;;;;;3.50;1.70;;;15.80;66.80;;;;;;6243808;23;20001;-68
2022/08/29 02:40:32;;;;;;;4.57;2.20;;;15.80;66.50;;;;;;6243637;23;20035;-68
2022/08/29 02:42:58;;;;;;;2.67;1.80;;;15.80;66.40;;;;;;6243543;23;20004;-68
2022/08/29 02:45:24;;;;;;;2.70;1.90;;;15.80;66.20;;;;;;6243250;23;20004;-68
2022/08/29 02:47:50;;;;;;;3.10;1.77;;;15.80;66.00;;;;;;6243628;23;20008;-68
2022/08/29 02:50:16;;;;;;;5.90;3.10;;;15.80;65.90;;;;;;6242512;23;20014;-68
2022/08/29 02:52:42;;;;;;;4.97;2.80;;;15.80;65.80;;;;;;6243475;23;20004;-69
2022/08/29 02:55:13;;;;;;;4.78;2.42;;;15.70;65.70;;;;;;6243416;23;19996;-69
2022/08/29 02:57:39;;;;;;;4.20;2.55;;;15.70;65.60;;;;;;6243217;23;20023;-69
2022/08/29 03:00:08;;;;;;;3.72;2.10;;;15.70;65.60;;;;;;6242244;23;20012;-68
2022/08/29 03:02:34;;;;;;;5.20;2.20;;;15.70;65.50;;;;;;6242419;23;20004;-68
2022/08/29 03:05:00;;;;;;;3.10;1.90;;;15.70;65.40;;;;;;6242767;23;20011;-68
2022/08/29 03:07:26;;;;;;;4.60;2.30;;;15.70;65.30;;;;;;6242980;23;20050;-68
2022/08/29 03:09:51;;;;;;;3.47;2.30;;;15.70;65.10;;;;;;6242598;23;20363;-68
2022/08/29 03:12:17;;;;;;;4.47;2.17;;;15.70;65.00;;;;;;6243269;23;20041;-68
2022/08/29 03:14:43;;;;;;;4.07;2.13;;;15.70;64.90;;;;;;6242582;23;20000;-68
2022/08/29 03:17:09;;;;;;;2.72;1.73;;;15.80;64.90;;;;;;6242122;23;20000;-68
2022/08/29 03:19:34;;;;;;;4.35;1.88;;;15.70;64.80;;;;;;6241024;23;20012;-68
2022/08/29 03:22:00;;;;;;;4.10;1.98;;;15.70;64.80;;;;;;6242090;23;20437;-68
2022/08/29 03:24:26;;;;;;;4.68;2.03;;;15.70;64.80;;;;;;6243673;23;20475;-67
2022/08/29 03:26:52;;;;;;;3.72;2.10;;;15.70;64.80;;;;;;6243523;23;20119;-67
2022/08/29 03:29:17;;;;;;;2.47;1.77;;;15.70;64.90;;;;;;6243726;23;20031;-67
2022/08/29 03:31:43;;;;;;;3.55;2.35;;;15.60;64.80;;;;;;6241554;23;20433;-68
2022/08/29 03:34:08;;;;;;;3.65;1.90;;;15.60;64.80;;;;;;6243223;23;19996;-68
2022/08/29 03:36:34;;;;;;;4.13;2.08;;;15.60;64.80;;;;;;6243326;23;20866;-67
2022/08/29 03:38:59;;;;;;;3.75;2.20;;;15.60;64.90;;;;;;6243155;23;20349;-67
2022/08/29 03:41:27;;;;;;;4.60;2.15;;;15.60;64.90;;;;;;6243488;23;20011;-68
2022/08/29 03:43:54;;;;;;;3.53;2.30;;;15.60;64.90;;;;;;6242525;23;20004;-67
2022/08/29 03:46:20;;;;;;;4.53;2.25;;;15.60;64.90;;;;;;6242263;23;19996;-67
2022/08/29 03:48:46;;;;;;;4.55;2.20;;;15.60;65.00;;;;;;6243635;23;20008;-67
2022/08/29 03:51:12;;;;;;;3.10;1.85;;;15.50;65.00;;;;;;6243249;23;20032;-68
2022/08/29 03:53:39;;;;;;;4.38;2.35;;;15.50;64.90;;;;;;6241326;23;20503;-68
2022/08/29 03:56:06;;;;;;;4.13;2.47;;;15.50;65.00;;;;;;6243111;23;20341;-68
2022/08/29 03:58:32;;;;;;;3.38;2.15;;;15.50;65.00;;;;;;6244685;23;20000;-66
2022/08/29 04:00:57;;;;;;;3.85;2.50;;;15.50;65.00;;;;;;6242930;23;20011;-67
2022/08/29 04:03:23;;;;;;;5.18;2.13;;;15.50;65.10;;;;;;6243588;23;20012;-68
2022/08/29 04:05:49;;;;;;;4.88;2.13;;;15.50;65.20;;;;;;6242958;23;20011;-67
2022/08/29 04:08:14;;;;;;;3.20;2.05;;;15.50;65.20;;;;;;6243912;23;20000;-67
2022/08/29 04:10:40;;;;;;;3.15;1.98;;;15.50;65.20;;;;;;6244122;23;20012;-68
2022/08/29 04:13:07;;;;;;;3.80;2.17;;;15.50;65.10;;;;;;6244427;23;20449;-69
2022/08/29 04:15:33;;;;;;;3.28;1.90;;;15.60;65.10;;;;;;6240766;23;20031;-68
2022/08/29 04:18:00;;;;;;;3.35;1.98;;;15.50;65.00;;;;;;6242280;23;20424;-68
2022/08/29 04:20:29;;;;;;;3.75;2.03;;;15.60;65.00;;;;;;6242217;23;20000;-68
2022/08/29 04:22:56;;;;;;;3.25;2.00;;;15.60;65.00;;;;;;6240520;23;20054;-69
2022/08/29 04:25:23;;;;;;;3.38;1.98;;;15.60;65.10;;;;;;6240708;23;20011;-67
2022/08/29 04:27:49;;;;;;;4.22;1.98;;;15.60;65.00;;;;;;6241384;23;20016;-67
2022/08/29 04:30:17;;;;;;;2.42;1.85;;;15.60;65.10;;;;;;6242189;23;20026;-69
2022/08/29 04:32:43;;;;;;;2.70;1.80;;;15.60;65.00;;;;;;6241804;23;20077;-69
2022/08/29 04:35:11;;;;;;;4.60;2.10;;;15.60;64.90;;;;;;6241948;23;19996;-69
2022/08/29 04:37:37;;;;;;;3.55;2.33;;;15.60;64.90;;;;;;6242108;22;19997;-69
2022/08/29 04:40:04;;;;;;;4.93;1.90;;;15.60;65.00;;;;;;6239486;23;20000;-69
2022/08/29 04:42:30;;;;;;;4.10;2.10;;;15.60;65.00;;;;;;6243144;23;20038;-69
2022/08/29 04:44:56;;;;;;;4.07;2.53;;;15.60;65.00;;;;;;6241104;23;20004;-68
2022/08/29 04:47:22;;;;;;;4.25;2.10;;;15.60;65.00;;;;;;6244226;23;20054;-68
2022/08/29 04:49:53;;;;;;;3.53;1.90;;;15.60;65.00;;;;;;6243302;23;20012;-68
2022/08/29 04:52:19;;;;;;;3.35;1.90;;;15.60;65.00;;;;;;6243759;23;20004;-68
2022/08/29 04:54:45;;;;;;;4.18;2.00;;;15.60;64.90;;;;;;6243283;23;20022;-68
2022/08/29 04:57:10;;;;;;;1.85;1.45;;;15.70;64.90;;;;;;6244597;23;20337;-67
2022/08/29 04:59:36;;;;;;;3.65;2.00;;;15.70;64.70;;;;;;6243887;23;20008;-67
2022/08/29 05:02:01;;;;;;;3.20;1.77;;;15.80;64.60;;;;;;6242894;23;20004;-67
2022/08/29 05:04:27;;;;;;;2.55;1.70;;;15.80;64.50;;;;;;6242753;23;20004;-67
2022/08/29 05:06:52;;;;;;;5.63;1.80;;;15.80;64.40;;;;;;6243011;23;20008;-67
2022/08/29 05:09:18;;;;;;;2.92;1.63;;;15.90;64.40;;;;;;6243047;23;20718;-68
2022/08/29 05:11:43;;;;;;;2.70;1.90;;;15.90;64.30;;;;;;6241284;23;20007;-68
2022/08/29 05:14:09;;;;;;;2.33;1.70;;;16.00;64.30;;;;;;6243524;23;20079;-68
2022/08/29 05:16:36;;;;;;;3.05;1.80;;;16.00;64.20;;;;;;6244817;23;20036;-68
2022/08/29 05:19:05;;;;;;;2.67;1.75;;;16.00;64.10;;;;;;6242032;23;20008;-69
2022/08/29 05:21:33;;;;;;;3.28;2.30;;;16.10;64.10;;;;;;6241694;23;20000;-69
2022/08/29 05:23:59;;;;;;;2.90;2.00;;;16.10;64.10;;;;;;6240316;23;20050;-69
2022/08/29 05:26:30;;;;;;;2.75;1.80;;;16.10;64.10;;;;;;6243957;23;20000;-70
2022/08/29 05:28:55;;;;;;;3.30;1.73;;;16.10;64.10;;;;;;6242645;23;19996;-69
2022/08/29 05:31:21;;;;;;;3.13;1.98;;;16.20;63.90;;;;;;6243535;23;20528;-69
2022/08/29 05:33:47;;;;;;;4.38;1.90;;;16.30;63.90;;;;;;6243077;23;20049;-69
2022/08/29 05:36:13;;;;;;;4.40;2.13;;;16.30;63.70;;;;;;6241829;23;20031;-69
2022/08/29 05:38:38;;;;;;;2.72;1.88;;;16.30;63.70;;;;;;6243196;23;19997;-70
2022/08/29 05:41:05;;;;;;;2.70;1.90;;;16.20;63.70;;;;;;6243702;23;20052;-69
2022/08/29 05:43:32;;;;;;;2.78;1.90;;;16.20;63.70;;;;;;6242316;23;20008;-69
2022/08/29 05:46:06;;;;;;;3.40;1.98;;;16.10;63.70;;;;;;6243788;23;20318;-69
2022/08/29 05:48:32;;;;;;;3.55;1.95;;;16.10;63.80;;;;;;6244353;23;20008;-69
2022/08/29 05:50:58;;;;;;;2.60;1.80;;;16.10;63.80;;;;;;6243884;23;20000;-69
2022/08/29 05:53:24;;;;;;;2.80;1.70;;;16.10;63.80;;;;;;6249566;23;20004;-69
2022/08/29 05:55:50;;;;;;;4.45;2.20;;;16.10;63.70;;;;;;6242188;23;20051;-69
2022/08/29 05:58:17;;;;;;;3.10;2.00;;;16.10;63.90;;;;;;6244351;23;20054;-69
2022/08/29 06:00:45;;;;;;;5.20;2.40;;;16.10;64.00;;;;;;6242375;23;20004;-69
2022/08/29 06:03:11;;;;;;;3.47;1.98;;;16.10;64.00;;;;;;6243166;23;20011;-67
2022/08/29 06:05:38;;;;;;;4.45;2.13;;;16.20;64.00;;;;;;6241397;23;20000;-67
2022/08/29 06:08:04;;;;;;;3.15;1.95;;;16.30;63.90;;;;;;6242876;23;20058;-69
2022/08/29 06:10:30;;;;;;;3.53;1.83;;;16.30;63.90;;;;;;6242063;23;20367;-69
2022/08/29 06:12:55;;;;;;;3.50;1.90;;;16.40;63.80;;;;;;6243555;23;19998;-69
2022/08/29 06:15:21;;;;;;;3.38;1.90;;;16.50;63.70;;;;;;6243203;23;20000;-69
2022/08/29 06:17:47;;;;;;;4.93;2.05;;;16.50;63.50;;;;;;6243035;23;20075;-68
2022/08/29 06:20:13;;;;;;;4.25;2.20;;;16.60;63.50;;;;;;6242795;23;20004;-68
2022/08/29 06:22:39;;;;;;;3.28;2.00;;;16.70;63.50;;;;;;6243975;23;20563;-69
2022/08/29 06:25:06;;;;;;;2.85;1.70;;;16.80;63.20;;;;;;6241729;23;20433;-68
2022/08/29 06:27:32;;;;;;;3.38;1.75;;;17.40;62.50;;;;;;6241612;23;20012;-68
2022/08/29 06:29:57;;;;;;;3.95;1.80;;;17.70;61.50;;;;;;6241492;23;20011;-68
2022/08/29 06:32:23;;;;;;;4.55;1.80;;;17.90;60.90;;;;;;6243099;23;20000;-67
2022/08/29 06:34:48;;;;;;;2.78;1.88;;;18.00;60.60;;;;;;6241087;23;20035;-68
2022/08/29 06:37:14;;;;;;;4.53;2.10;;;18.00;60.50;;;;;;6242632;23;20036;-68
2022/08/29 06:39:40;;;;;;;2.13;1.50;;;18.40;60.10;;;;;;6243399;23;20062;-69
2022/08/29 06:42:05;;;;;;;4.28;1.90;;;19.10;58.90;;;;;;6243526;23;20020;-69
2022/08/29 06:44:31;;;;;;;6.03;2.13;;;19.20;58.10;;;;;;6242624;23;20031;-69
2022/08/29 06:46:58;;;;;;;3.83;2.10;;;19.10;57.90;;;;;;6243137;23;20082;-68
2022/08/29 06:49:23;;;;;;;3.60;2.10;;;18.90;58.30;;;;;;6243363;23;20004;-68
2022/08/29 06:51:53;;;;;;;3.72;2.00;;;18.70;58.60;;;;;;6243456;23;20330;-68
2022/08/29 06:54:21;;;;;;;4.70;1.83;;;18.60;58.90;;;;;;6243622;23;20001;-69
2022/08/29 06:56:47;;;;;;;3.85;1.70;;;18.50;59.10;;;;;;6243443;23;20006;-69
2022/08/29 06:59:13;;;;;;;3.70;1.55;;;18.60;59.10;;;;;;6243177;23;20047;-69
2022/08/29 07:01:43;;;;;;;3.78;1.90;;;18.70;59.10;;;;;;6241043;23;20314;-68
2022/08/29 07:04:09;;;;;;;3.83;1.80;;;18.70;58.90;;;;;;6242418;23;20054;-68
2022/08/29 07:06:36;;;;;;;5.43;2.20;;;18.60;59.00;;;;;;6240980;23;20035;-68
2022/08/29 07:09:02;;;;;;;3.85;1.67;;;18.60;59.10;;;;;;6242314;23;20000;-68
2022/08/29 07:11:30;;;;;;;3.25;1.70;;;18.60;59.10;;;;;;6242449;23;20008;-68
2022/08/29 07:13:57;;;;;;;3.80;2.17;;;18.70;59.90;;;;;;6242858;23;20452;-67
2022/08/29 07:16:23;;;;;;;4.03;2.00;;;18.90;58.90;;;;;;6243457;22;20000;-68
2022/08/29 07:18:49;;;;;;;4.82;2.10;;;18.90;58.80;;;;;;6242662;23;20003;-67
2022/08/29 07:21:18;;;;;;;3.05;1.70;;;18.80;58.80;;;;;;6243400;23;20001;-67
2022/08/29 07:23:43;;;;;;;3.75;1.90;;;18.80;59.10;;;;;;6242562;23;20000;-68
2022/08/29 07:26:16;;;;;;;4.00;1.90;;;18.70;59.20;;;;;;6241463;23;20011;-68
2022/08/29 07:28:42;;;;;;;3.40;2.00;;;18.70;59.30;;;;;;6243157;23;20011;-67
2022/08/29 07:31:08;;;;;;;3.33;2.00;;;18.70;59.40;;;;;;6241330;23;20000;-67
2022/08/29 07:33:34;;;;;;;2.97;1.80;;;18.70;59.50;;;;;;6241836;23;20000;-67
2022/08/29 07:36:00;;;;;;;5.40;2.10;;;18.80;59.40;;;;;;6241404;23;20000;-68
2022/08/29 07:38:29;;;;;;;3.42;1.70;;;18.80;59.40;;;;;;6241783;23;20000;-67
2022/08/29 07:41:00;;;;;;;3.55;1.80;;;18.80;59.40;;;;;;6242475;23;20001;-67
2022/08/29 07:43:26;;;;;;;3.33;1.80;;;18.90;59.40;;;;;;6242763;23;20404;-68
2022/08/29 07:45:53;;;;;;;2.95;2.10;;;19.00;59.40;;;;;;6241588;22;20062;-68
2022/08/29 07:48:19;;;;;;;2.45;1.77;;;19.10;59.20;;;;;;6241353;23;20004;-68
2022/08/29 07:50:45;;;;;;;4.57;1.80;;;19.20;59.10;;;;;;6239683;23;20437;-66
2022/08/29 07:53:10;;;;;;;2.65;1.90;;;19.40;58.80;;;;;;6242108;23;20000;-67
2022/08/29 07:55:36;;;;;;;10.88;8.90;;;19.40;58.80;;;;;;6240855;23;20000;-66
2022/08/29 07:58:03;;;;;;;6.25;4.13;;;19.40;58.70;;;;;;6241728;23;20006;-67
2022/08/29 08:00:29;;;;;;;4.40;2.63;;;19.40;58.70;;;;;;6242030;23;20004;-66
2022/08/29 08:02:55;;;;;;;4.18;2.05;;;19.50;58.60;;;;;;6240487;23;20036;-67
2022/08/29 08:05:20;;;;;;;3.10;1.75;;;19.60;58.60;;;;;;6241521;23;20097;-68
2022/08/29 08:07:48;;;;;;;3.72;1.80;;;19.60;58.50;;;;;;6242016;23;20000;-68
2022/08/29 08:10:16;;;;;;;3.63;1.90;;;19.70;58.30;;;;;;6242195;23;20004;-68
2022/08/29 08:12:42;;;;;;;6.30;2.55;;;20.00;58.10;;;;;;6241825;23;20019;-68
2022/08/29 08:15:08;;;;;;;3.78;2.00;;;20.10;57.70;;;;;;6238783;23;20032;-68
2022/08/29 08:17:33;;;;;;;2.58;1.65;;;20.10;57.80;;;;;;6237671;23;20000;-68
2022/08/29 08:19:59;;;;;;;4.32;1.65;;;20.20;57.70;;;;;;6239708;23;20007;-68
2022/08/29 08:22:24;;;;;;;2.38;1.52;;;20.50;57.30;;;;;;6240173;23;20000;-70
2022/08/29 08:24:50;;;;;;;2.38;1.83;;;20.90;56.60;;;;;;6238137;23;20023;-67
2022/08/29 08:27:15;;;;;;;3.05;1.80;;;21.10;55.70;;;;;;6240375;23;20349;-67
2022/08/29 08:29:43;;;;;;;5.40;2.42;;;21.60;55.50;;;;;;6239435;23;20294;-67
2022/08/29 08:32:09;;;;;;;3.80;1.80;;;22.80;53.30;;;;;;6238714;23;20038;-67
2022/08/29 08:34:34;;;;;;;3.88;2.00;;;22.50;52.00;;;;;;6238008;23;20071;-67
2022/08/29 08:37:00;;;;;;;3.75;1.92;;;22.30;52.70;;;;;;6237308;23;20008;-67
2022/08/29 08:39:26;;;;;;;3.67;1.83;;;22.60;52.20;;;;;;6238505;23;20420;-67
2022/08/29 08:42:02;;;;;;;3.97;1.88;;;22.50;52.00;;;;;;6238310;23;20393;-67
2022/08/29 08:44:52;;;;;;;3.90;1.70;;;22.20;52.40;;;;;;6239166;23;20008;-67
2022/08/29 08:47:24;;;;;;;3.00;1.77;;;21.90;53.10;;;;;;6238308;23;20015;-67
2022/08/29 08:50:04;;;;;;;3.08;1.70;;;21.50;53.10;;;;;;6239840;23;20008;-67
2022/08/29 08:52:39;;;;;;;3.08;1.70;;;21.30;53.80;;;;;;6240512;23;20004;-67
2022/08/29 08:55:13;;;;;;;2.45;1.50;;;21.20;54.00;;;;;;6239276;23;20023;-68
2022/08/29 08:57:48;;;;;;;2.88;1.90;;;21.10;53.80;;;;;;6240254;23;20004;-67
2022/08/29 09:00:14;;;;;;;2.33;1.50;;;21.00;53.80;;;;;;6237754;23;20008;-67
2022/08/29 09:03:24;;;;;;;2.38;1.65;;;21.20;54.10;;;;;;6237208;23;20375;-66
2022/08/29 09:06:06;;;;;;;2.55;1.50;;;21.20;53.70;;;;;;6186271;23;20012;-66
2022/08/29 09:09:01;;;;;;;3.95;2.03;;;21.60;53.40;;;;;;6236133;23;20016;-66
2022/08/29 09:12:08;;;;;;;4.45;1.90;;;21.50;51.50;;;;;;6238750;23;20008;-66
2022/08/29 09:14:54;;;;;;;2.58;1.80;;;21.40;52.00;;;;;;6239873;23;20503;-67
2022/08/29 09:17:31;;;;;;;4.18;1.70;;;21.30;52.70;;;;;;6237541;23;19996;-67
2022/08/29 09:19:57;;;;;;;2.67;1.73;;;21.40;53.10;;;;;;6240370;23;20008;-68
2022/08/29 09:22:26;;;;;;;2.97;1.50;;;21.40;53.20;;;;;;6247700;23;20008;-67
2022/08/29 09:25:01;;;;;;;2.67;1.50;;;21.40;53.30;;;;;;6258154;23;20023;-67
2022/08/29 09:27:29;;;;;;;2.60;1.40;;;21.40;53.60;;;;;;6252210;23;20043;-68
2022/08/29 09:30:07;;;;;;;2.90;1.70;;;21.40;53.80;;;;;;6242703;23;20011;-68
2022/08/29 09:32:49;;;;;;;3.05;1.55;;;21.40;53.90;;;;;;6240664;23;20011;-68
2022/08/29 09:35:23;;;;;;;3.38;1.48;;;21.40;54.10;;;;;;6242051;23;20000;-69
2022/08/29 09:38:01;;;;;;;3.92;1.90;;;21.30;54.70;;;;;;6242248;23;20004;-68
2022/08/29 09:40:49;;;;;;;2.33;1.65;;;21.30;55.40;;;;;;6244875;23;20028;-66
2022/08/29 09:43:38;;;;;;;4.93;1.67;;;21.30;55.50;;;;;;6235334;23;20023;-66
2022/08/29 09:46:09;;;;;;;3.40;1.48;;;21.30;55.30;;;;;;6221760;23;20776;-67
2022/08/29 09:48:41;;;;;;;3.83;1.48;;;21.40;55.10;;;;;;6239625;23;20039;-67
2022/08/29 09:51:09;;;;;;;2.80;1.40;;;21.40;54.90;;;;;;6239184;23;20004;-67
2022/08/29 09:53:35;;;;;;;4.07;1.80;;;21.40;54.80;;;;;;6238835;23;20000;-67
2022/08/29 09:56:08;;;;;;;2.38;1.45;;;21.40;54.80;;;;;;6237886;23;20004;-68
2022/08/29 09:58:40;;;;;;;3.45;1.67;;;21.40;54.70;;;;;;6238877;23;20071;-67
2022/08/29 10:01:15;;;;;;;2.85;1.42;;;21.40;54.50;;;;;;6235954;23;20506;-68
2022/08/29 10:03:52;;;;;;;2.63;1.27;;;21.40;54.50;;;;;;6238107;23;20019;-68
2022/08/29 10:06:24;;;;;;;3.05;1.42;;;21.50;54.50;;;;;;6236618;23;20614;-68
2022/08/29 10:09:11;;;;;;;3.22;1.58;;;21.60;54.70;;;;;;6239882;23;20434;-68
2022/08/29 10:11:59;;;;;;;1.90;1.50;;;21.60;54.70;;;;;;6241282;23;20004;-68
2022/08/29 10:14:39;;;;;;;2.97;1.60;;;21.70;54.80;;;;;;6252420;23;20004;-68
2022/08/29 10:20:01;;;;;;;2.90;1.50;;;21.80;54.70;;;;;;6245552;23;20657;-69
2022/08/29 10:22:35;;;;;;;1.95;1.20;;;21.90;54.90;;;;;;6241097;23;20031;-69
2022/08/29 10:25:08;;;;;;;2.38;1.35;;;22.00;54.90;;;;;;6239080;23;20000;-68
2022/08/29 10:27:59;;;;;;;2.45;1.30;;;22.10;54.80;;;;;;6240620;23;20008;-68
2022/08/29 10:30:49;;;;;;;2.22;1.30;;;22.20;54.60;;;;;;6238839;23;20664;-68
2022/08/29 10:33:43;;;;;;;5.07;1.70;;;22.30;54.50;;;;;;6239075;23;20000;-68
2022/08/29 10:36:21;;;;;;;6.05;3.10;;;22.30;54.60;;;;;;6224121;23;20011;-68
2022/08/29 10:38:55;;;;;;;3.95;2.00;;;22.40;54.50;;;;;;6241481;23;20001;-68
2022/08/29 10:41:45;;;;;;;3.15;1.50;;;22.40;54.20;;;;;;6241554;23;20728;-68
2022/08/29 10:44:35;;;;;;;3.30;1.40;;;22.50;54.10;;;;;;6241782;23;20004;-68
2022/08/29 10:47:31;;;;;;;2.97;1.73;;;22.50;53.90;;;;;;6240042;23;20531;-68
2022/08/29 10:50:35;;;;;;;2.67;1.50;;;22.50;53.70;;;;;;6241947;23;20096;-67
2022/08/29 10:53:05;;;;;;;1.63;1.00;;;22.50;53.80;;;;;;6242227;23;20007;-67
2022/08/29 10:55:46;;;;;;;2.83;1.20;;;22.50;53.80;;;;;;6241138;23;20000;-68
2022/08/29 10:58:37;;;;;;;2.45;1.40;;;22.60;53.70;;;;;;6241101;23;19996;-67
2022/08/29 11:01:09;;;;;;;2.75;1.30;;;22.60;53.50;;;;;;6242026;23;20070;-68
2022/08/29 11:03:57;;;;;;;4.05;1.55;;;22.70;53.50;;;;;;6239752;23;20441;-67
2022/08/29 11:06:25;;;;;;;3.17;1.48;;;22.50;53.50;;;;;;6240225;23;20004;-67
2022/08/29 11:09:13;;;;;;;3.33;1.15;;;22.50;53.80;;;;;;6241939;23;20054;-68
2022/08/29 11:11:45;;;;;;;2.25;1.30;;;22.40;53.90;;;;;;6240092;23;20004;-66
2022/08/29 11:14:28;;;;;;;4.55;1.50;;;22.60;54.10;;;;;;6240831;23;20000;-67
2022/08/29 11:16:55;;;;;;;2.92;1.52;;;22.50;54.00;;;;;;6238318;23;20393;-67
2022/08/29 11:19:23;;;;;;;4.10;1.75;;;22.50;54.10;;;;;;6240804;23;20008;-66
2022/08/29 11:22:24;;;;;;;5.03;1.40;;;22.50;54.30;;;;;;6240891;23;20071;-67
2022/08/29 11:25:14;;;;;;;1.83;1.50;;;22.50;54.90;;;;;;6204199;23;20022;-67
2022/08/29 11:27:58;;;;;;;3.40;1.73;;;22.60;54.30;;;;;;6237536;23;20011;-67
2022/08/29 11:30:52;;;;;;;4.95;1.50;;;22.40;54.20;;;;;;6239255;23;20000;-66
2022/08/29 11:33:45;;;;;;;3.00;1.60;;;22.30;54.70;;;;;;6239429;23;20008;-67
2022/08/29 11:36:37;;;;;;;1.83;1.30;;;22.30;54.70;;;;;;6237743;23;20035;-66
2022/08/29 11:39:27;;;;;;;4.32;1.73;;;22.40;54.70;;;;;;6240567;23;20100;-66
2022/08/29 11:41:57;;;;;;;3.03;1.55;;;22.30;54.80;;;;;;6240713;23;20046;-67
2022/08/29 11:44:25;;;;;;;3.08;1.45;;;22.30;54.80;;;;;;6240893;23;20001;-67
2022/08/29 11:46:52;;;;;;;3.22;1.50;;;22.40;55.00;;;;;;6238783;23;20437;-67
2022/08/29 11:49:35;;;;;;;3.80;1.60;;;22.50;54.80;;;;;;6240636;23;20075;-67
2022/08/29 11:52:07;;;;;;;2.50;1.48;;;22.70;54.60;;;;;;6239154;23;20008;-67
2022/08/29 11:54:33;;;;;;;2.83;1.58;;;23.00;54.30;;;;;;6240400;23;20456;-67
2022/08/29 11:57:02;;;;;;;3.38;1.58;;;23.20;53.60;;;;;;6238665;23;20083;-66
2022/08/29 11:59:55;;;;;;;3.42;1.70;;;23.40;53.40;;;;;;6240265;23;20057;-66
2022/08/29 12:02:26;;;;;;;4.78;1.98;;;23.50;53.10;;;;;;6239226;23;20400;-66
2022/08/29 12:05:00;;;;;;;3.45;1.60;;;23.50;52.70;;;;;;6240083;23;20026;-66
2022/08/29 12:07:42;;;;;;;3.05;1.40;;;23.50;52.60;;;;;;6238842;23;20377;-67
2022/08/29 12:10:23;;;;;;;5.93;3.10;;;23.60;52.50;;;;;;6240132;23;20422;-66
2022/08/29 12:13:00;;;;;;;3.83;1.77;;;23.60;52.20;;;;;;6239999;23;20000;-66
2022/08/29 12:15:28;;;;;;;2.83;1.50;;;23.70;51.80;;;;;;6238641;23;20031;-66
2022/08/29 12:17:56;;;;;;;4.50;1.88;;;23.70;51.50;;;;;;6238918;23;20449;-66
2022/08/29 12:20:39;;;;;;;2.42;1.55;;;23.90;50.80;;;;;;6238989;23;20010;-67
2022/08/29 12:23:14;;;;;;;3.05;1.60;;;24.00;50.00;;;;;;6239293;23;20464;-67
2022/08/29 12:25:46;;;;;;;2.22;1.40;;;24.40;49.80;;;;;;6237398;23;20004;-67
2022/08/29 12:28:19;;;;;;;3.28;1.50;;;24.30;48.60;;;;;;6238299;23;20624;-66
2022/08/29 12:30:48;;;;;;;2.63;1.30;;;24.40;49.20;;;;;;6238131;23;20007;-67
2022/08/29 12:33:41;;;;;;;3.15;1.30;;;24.50;49.40;;;;;;6238666;23;20460;-66
2022/08/29 12:36:51;;;;;;;2.83;1.42;;;24.70;49.30;;;;;;6237352;23;20568;-67
2022/08/29 12:39:53;;;;;;;3.95;1.70;;;24.90;48.90;;;;;;6196756;22;20044;-67
2022/08/29 12:42:56;;;;;;;4.85;1.70;;;24.90;48.90;;;;;;6238841;23;20091;-68
2022/08/29 12:45:26;;;;;;;2.95;1.40;;;25.00;48.70;;;;;;6237831;23;20380;-68
2022/08/29 12:47:57;;;;;;;3.10;1.50;;;25.00;48.60;;;;;;6238591;23;20345;-68
2022/08/29 12:50:44;;;;;;;1.48;1.30;;;24.90;48.60;;;;;;6238383;23;20062;-67
2022/08/29 12:53:35;;;;;;;2.83;1.42;;;24.80;48.70;;;;;;6239223;23;20079;-66
2022/08/29 12:56:18;;;;;;;1.88;1.13;;;24.70;49.00;;;;;;6238040;23;20004;-67
2022/08/29 12:58:56;;;;;;;1.95;1.25;;;24.60;49.20;;;;;;6238963;23;20026;-68
2022/08/29 13:01:27;;;;;;;2.50;1.30;;;24.60;49.30;;;;;;6238724;23;20096;-67
2022/08/29 13:04:05;;;;;;;2.97;1.52;;;24.50;49.30;;;;;;6237753;23;20000;-66
2022/08/29 13:06:32;;;;;;;3.03;1.50;;;24.30;49.00;;;;;;6236403;23;20400;-67
2022/08/29 13:08:58;;;;;;;2.60;1.58;;;24.20;49.50;;;;;;6239443;23;20315;-67
2022/08/29 13:11:27;;;;;;;2.20;1.20;;;24.20;49.50;;;;;;6241013;23;20421;-67
2022/08/29 13:14:05;;;;;;;2.72;1.60;;;24.20;49.70;;;;;;6241198;23;20046;-69